createdAt,value
2023-05-04T00:00:19.881Z,6.96
2023-05-04T00:02:47.571Z,6.52
2023-05-04T00:05:15.194Z,6.83
2023-05-04T00:07:42.885Z,7.21
2023-05-04T00:10:11.053Z,7.11
2023-05-04T00:12:39.555Z,6.77
2023-05-04T00:15:07.929Z,6.02
2023-05-04T00:17:35.613Z,6.92
2023-05-04T00:20:04.211Z,7.56
2023-05-04T00:22:32.432Z,7.84
2023-05-04T00:25:00.038Z,8.14
2023-05-04T00:27:27.702Z,7.81
2023-05-04T00:29:55.324Z,7.40
2023-05-04T00:32:23.140Z,7.42
2023-05-04T00:34:51.061Z,7.27
2023-05-04T00:37:18.744Z,6.39
2023-05-04T00:39:46.306Z,6.92
2023-05-04T00:42:13.981Z,6.43
2023-05-04T00:44:41.830Z,6.46
2023-05-04T00:47:09.677Z,6.52
2023-05-04T00:49:37.750Z,6.96
2023-05-04T00:52:06.056Z,7.13
2023-05-04T00:54:34.723Z,7.17
2023-05-04T00:57:03.502Z,6.56
2023-05-04T00:59:31.154Z,6.59
2023-05-04T01:01:58.851Z,6.17
2023-05-04T01:04:27.059Z,6.12
2023-05-04T01:07:11.691Z,5.58
2023-05-04T01:09:54.256Z,6.25
2023-05-04T01:12:52.913Z,6.50
2023-05-04T01:15:21.012Z,6.22
2023-05-04T01:17:49.621Z,6.49
2023-05-04T01:20:17.471Z,6.68
2023-05-04T01:22:45.374Z,6.64
2023-05-04T01:25:13.173Z,6.73
2023-05-04T01:27:50.379Z,7.00
2023-05-04T01:30:29.646Z,7.12
2023-05-04T01:33:00.625Z,6.69
2023-05-04T01:35:30.477Z,6.96
2023-05-04T01:37:59.630Z,6.98
2023-05-04T01:40:27.409Z,7.10
2023-05-04T01:42:55.166Z,7.22
2023-05-04T01:45:22.951Z,6.79
2023-05-04T01:47:50.874Z,6.75
2023-05-04T01:50:18.643Z,7.04
2023-05-04T01:52:46.911Z,6.64
2023-05-04T01:55:14.554Z,6.55
2023-05-04T01:57:42.167Z,6.53
2023-05-04T02:00:10.646Z,6.90
2023-05-04T02:02:44.237Z,7.01
2023-05-04T02:05:16.387Z,7.34
2023-05-04T02:07:44.151Z,6.99
2023-05-04T02:10:12.081Z,6.68
2023-05-04T02:12:40.341Z,7.29
2023-05-04T02:15:08.959Z,7.27
2023-05-04T02:17:36.667Z,7.20
2023-05-04T02:20:08.090Z,7.57
2023-05-04T02:22:36.006Z,7.33
2023-05-04T02:25:03.793Z,7.31
2023-05-04T02:27:31.645Z,7.28
2023-05-04T02:29:59.367Z,7.05
2023-05-04T02:32:27.140Z,7.07
2023-05-04T02:34:54.932Z,6.78
2023-05-04T02:37:22.600Z,6.85
2023-05-04T02:39:50.212Z,7.30
2023-05-04T02:42:18.983Z,6.73
2023-05-04T02:44:46.696Z,7.21
2023-05-04T02:47:14.392Z,6.93
2023-05-04T02:49:42.100Z,6.85
2023-05-04T02:52:10.149Z,7.06
2023-05-04T02:54:38.531Z,7.00
2023-05-04T02:57:07.123Z,6.70
2023-05-04T02:59:34.794Z,6.55
2023-05-04T03:02:02.440Z,6.22
2023-05-04T03:04:30.278Z,7.09
2023-05-04T03:06:57.921Z,7.25
2023-05-04T03:09:25.550Z,7.23
2023-05-04T03:11:53.318Z,7.33
2023-05-04T03:14:21.125Z,6.77
2023-05-04T03:16:48.970Z,6.76
2023-05-04T03:19:19.038Z,6.99
2023-05-04T03:21:46.970Z,7.24
2023-05-04T03:24:17.432Z,7.30
2023-05-04T03:26:45.363Z,7.50
2023-05-04T03:29:13.151Z,7.05
2023-05-04T03:31:41.510Z,7.19
2023-05-04T03:34:12.704Z,7.41
2023-05-04T03:36:40.936Z,7.42
2023-05-04T03:39:08.568Z,6.67
2023-05-04T03:41:37.508Z,7.27
2023-05-04T03:44:05.151Z,7.30
2023-05-04T03:46:32.893Z,6.79
2023-05-04T03:49:00.669Z,6.35
2023-05-04T03:51:29.000Z,7.21
2023-05-04T03:53:56.734Z,6.88
2023-05-04T03:56:24.603Z,7.32
2023-05-04T03:58:52.250Z,7.22
2023-05-04T04:01:24.228Z,7.45
2023-05-04T04:03:51.999Z,7.57
2023-05-04T04:06:22.770Z,7.38
2023-05-04T04:08:50.608Z,7.66
2023-05-04T04:11:18.220Z,7.74
2023-05-04T04:13:45.872Z,7.48
2023-05-04T04:16:13.758Z,7.86
2023-05-04T04:18:41.417Z,7.91
2023-05-04T04:21:10.376Z,7.75
2023-05-04T04:23:38.211Z,7.78
2023-05-04T04:26:08.655Z,7.63
2023-05-04T04:28:36.745Z,7.67
2023-05-04T04:31:04.691Z,7.12
2023-05-04T04:33:32.854Z,7.60
2023-05-04T04:36:00.442Z,7.80
2023-05-04T04:38:28.113Z,7.97
2023-05-04T04:40:55.663Z,8.15
2023-05-04T04:43:23.337Z,7.99
2023-05-04T04:45:51.013Z,7.96
2023-05-04T04:48:21.344Z,8.12
2023-05-04T04:50:49.062Z,8.35
2023-05-04T04:53:16.801Z,8.44
2023-05-04T04:55:44.892Z,8.65
2023-05-04T04:58:12.958Z,8.75
2023-05-04T05:00:40.848Z,8.66
2023-05-04T05:03:08.657Z,8.78
2023-05-04T05:05:36.967Z,8.73
2023-05-04T05:08:04.896Z,9.09
2023-05-04T05:10:32.655Z,8.73
2023-05-04T05:13:01.556Z,8.90
2023-05-04T05:15:29.313Z,8.48
2023-05-04T05:17:59.766Z,9.15
2023-05-04T05:20:27.583Z,9.21
2023-05-04T05:22:55.337Z,9.28
2023-05-04T05:25:23.340Z,9.34
2023-05-04T05:27:51.477Z,9.62
2023-05-04T05:30:19.413Z,9.94
2023-05-04T05:32:49.217Z,9.63
2023-05-04T05:35:17.305Z,9.95
2023-05-04T05:37:45.413Z,9.83
2023-05-04T05:40:14.085Z,9.16
2023-05-04T05:42:45.069Z,9.65
2023-05-04T05:45:12.845Z,9.88
2023-05-04T05:47:40.512Z,10.05
2023-05-04T05:50:08.834Z,9.80
2023-05-04T05:52:36.528Z,9.84
2023-05-04T05:55:07.358Z,10.60
2023-05-04T05:57:35.056Z,10.56
2023-05-04T06:00:03.080Z,10.82
2023-05-04T06:02:40.226Z,11.11
2023-05-04T06:05:08.329Z,10.98
2023-05-04T06:07:36.213Z,11.10
2023-05-04T06:10:04.680Z,10.73
2023-05-04T06:12:32.647Z,11.05
2023-05-04T06:15:00.433Z,11.12
2023-05-04T06:17:28.053Z,11.66
2023-05-04T06:19:55.930Z,11.86
2023-05-04T06:22:23.578Z,11.42
2023-05-04T06:24:53.412Z,11.35
2023-05-04T06:27:24.150Z,11.01
2023-05-04T06:29:52.367Z,11.97
2023-05-04T06:32:20.108Z,11.77
2023-05-04T06:34:47.734Z,11.25
2023-05-04T06:37:16.150Z,11.80
2023-05-04T06:39:43.866Z,11.56
2023-05-04T06:42:12.166Z,11.68
2023-05-04T06:44:41.476Z,11.46
2023-05-04T06:47:09.204Z,12.29
2023-05-04T06:49:36.832Z,12.96
2023-05-04T06:52:04.787Z,12.58
2023-05-04T06:54:32.557Z,13.01
2023-05-04T06:57:03.212Z,12.85
2023-05-04T06:59:31.256Z,13.54
2023-05-04T07:01:58.958Z,13.57
2023-05-04T07:04:26.751Z,13.13
2023-05-04T07:06:55.139Z,12.57
2023-05-04T07:09:23.084Z,12.86
2023-05-04T07:11:50.688Z,13.43
2023-05-04T07:14:18.397Z,13.93
2023-05-04T07:16:46.145Z,14.36
2023-05-04T07:19:14.384Z,14.74
2023-05-04T07:21:42.884Z,14.49
2023-05-04T07:24:10.589Z,15.20
2023-05-04T07:26:38.236Z,14.17
2023-05-04T07:29:06.043Z,14.30
2023-05-04T07:31:34.867Z,14.92
2023-05-04T07:34:02.490Z,15.67
2023-05-04T07:36:30.674Z,15.57
2023-05-04T07:38:58.318Z,15.47
2023-05-04T07:41:26.328Z,15.47
2023-05-04T07:43:54.013Z,15.45
2023-05-04T07:46:21.773Z,16.03
2023-05-04T07:48:49.597Z,16.59
2023-05-04T07:51:17.352Z,16.66
2023-05-04T07:53:44.944Z,15.79
2023-05-04T07:56:13.490Z,16.37
2023-05-04T07:58:41.615Z,16.75
2023-05-04T08:01:09.211Z,16.14
2023-05-04T08:03:36.868Z,15.91
2023-05-04T08:06:04.581Z,17.04
2023-05-04T08:08:32.179Z,17.05
2023-05-04T08:11:11.664Z,16.83
2023-05-04T08:13:40.700Z,17.56
2023-05-04T08:16:12.070Z,17.79
2023-05-04T08:18:39.719Z,17.94
2023-05-04T08:21:07.386Z,17.75
2023-05-04T08:23:36.264Z,17.86
2023-05-04T08:26:05.067Z,16.82
2023-05-04T08:28:37.923Z,17.62
2023-05-04T08:31:06.534Z,17.50
2023-05-04T08:33:34.659Z,17.10
2023-05-04T08:36:04.604Z,17.77
2023-05-04T08:38:32.559Z,18.19
2023-05-04T08:41:04.939Z,17.99
2023-05-04T08:43:36.428Z,18.20
2023-05-04T08:46:06.108Z,17.06
2023-05-04T08:48:34.863Z,17.56
2023-05-04T08:51:04.466Z,18.33
2023-05-04T08:53:35.310Z,19.18
2023-05-04T08:56:09.132Z,19.44
2023-05-04T08:58:42.433Z,18.99
2023-05-04T09:01:11.328Z,18.51
2023-05-04T09:03:39.898Z,19.32
2023-05-04T09:06:08.696Z,19.71
2023-05-04T09:08:36.524Z,19.99
2023-05-04T09:11:05.082Z,19.92
2023-05-04T09:13:32.837Z,19.64
2023-05-04T09:16:00.550Z,18.55
2023-05-04T09:18:44.312Z,18.54
2023-05-04T09:21:12.400Z,18.38
2023-05-04T09:23:53.964Z,17.98
2023-05-04T09:26:30.436Z,17.53
2023-05-04T09:29:14.257Z,18.46
2023-05-04T09:31:52.706Z,19.27
2023-05-04T09:34:21.427Z,20.32
2023-05-04T09:37:01.514Z,20.73
2023-05-04T09:39:30.473Z,17.91
2023-05-04T09:41:58.147Z,17.81
2023-05-04T09:44:29.505Z,18.21
2023-05-04T09:46:59.324Z,19.25
2023-05-04T09:49:34.641Z,18.84
2023-05-04T09:52:05.095Z,19.36
2023-05-04T09:54:35.799Z,19.86
2023-05-04T09:57:15.367Z,19.48
2023-05-04T09:59:43.456Z,19.68
2023-05-04T10:02:21.835Z,19.94
2023-05-04T10:04:52.714Z,20.04
2023-05-04T10:07:21.108Z,20.30
2023-05-04T10:09:50.258Z,20.97
2023-05-04T10:12:18.438Z,20.47
2023-05-04T10:14:47.276Z,19.91
2023-05-04T10:18:02.027Z,19.77
2023-05-04T10:21:08.052Z,18.70
2023-05-04T10:24:10.182Z,20.11
2023-05-04T10:27:09.700Z,20.63
2023-05-04T10:29:40.594Z,20.39
2023-05-04T10:32:22.661Z,20.57
2023-05-04T10:34:51.641Z,20.44
2023-05-04T10:37:21.767Z,21.31
2023-05-04T10:39:54.415Z,20.65
2023-05-04T10:42:22.285Z,21.46
2023-05-04T10:44:57.824Z,22.09
2023-05-04T10:47:34.282Z,22.53
2023-05-04T10:50:15.500Z,20.46
2023-05-04T10:52:53.829Z,18.79
2023-05-04T10:55:22.579Z,18.23
2023-05-04T10:58:05.886Z,18.64
2023-05-04T11:00:42.176Z,19.82
2023-05-04T11:03:15.026Z,20.24
2023-05-04T11:05:51.239Z,20.47
2023-05-04T11:08:34.354Z,20.33
2023-05-04T11:11:07.876Z,20.73
2023-05-04T11:13:44.130Z,21.43
2023-05-04T11:16:13.095Z,20.55
2023-05-04T11:18:41.251Z,20.31
2023-05-04T11:21:09.680Z,21.28
2023-05-04T11:23:38.553Z,20.86
2023-05-04T11:26:12.378Z,21.69
2023-05-04T11:28:40.364Z,22.03
2023-05-04T11:31:17.160Z,21.56
2023-05-04T11:33:52.446Z,21.44
2023-05-04T11:36:22.479Z,20.64
2023-05-04T11:38:50.978Z,20.93
2023-05-04T11:41:19.118Z,21.36
2023-05-04T11:43:47.797Z,22.37
2023-05-04T11:46:16.562Z,22.30
2023-05-04T11:48:47.852Z,23.37
2023-05-04T11:51:15.809Z,22.95
2023-05-04T11:53:44.814Z,21.40
2023-05-04T11:56:12.663Z,22.17
2023-05-04T11:58:40.649Z,22.73
2023-05-04T12:01:08.582Z,22.83
2023-05-04T12:03:53.109Z,22.27
2023-05-04T12:06:34.495Z,22.41
2023-05-04T12:09:09.915Z,22.75
2023-05-04T12:11:38.403Z,22.96
2023-05-04T12:14:10.871Z,21.83
2023-05-04T12:16:39.357Z,21.22
2023-05-04T12:19:12.928Z,21.60
2023-05-04T12:21:54.808Z,22.57
2023-05-04T12:24:24.498Z,22.29
2023-05-04T12:26:52.483Z,21.28
2023-05-04T12:29:20.352Z,22.25
2023-05-04T12:31:48.104Z,23.03
2023-05-04T12:34:15.789Z,22.77
2023-05-04T12:36:44.410Z,23.83
2023-05-04T12:39:12.186Z,22.72
2023-05-04T12:41:40.149Z,23.46
2023-05-04T12:44:09.167Z,23.67
2023-05-04T12:46:37.312Z,23.91
2023-05-04T12:49:05.749Z,23.95
2023-05-04T12:51:33.455Z,24.10
2023-05-04T12:54:01.086Z,24.75
2023-05-04T12:56:28.896Z,23.87
2023-05-04T12:58:56.519Z,23.06
2023-05-04T13:01:24.345Z,21.99
2023-05-04T13:03:52.019Z,22.07
2023-05-04T13:06:19.902Z,23.13
2023-05-04T13:08:48.403Z,22.91
2023-05-04T13:11:19.182Z,22.51
2023-05-04T13:13:47.107Z,23.27
2023-05-04T13:16:15.062Z,21.42
2023-05-04T13:18:43.293Z,22.02
2023-05-04T13:21:11.796Z,23.27
2023-05-04T13:23:39.445Z,23.46
2023-05-04T13:26:07.089Z,24.06
2023-05-04T13:28:35.373Z,24.63
2023-05-04T13:31:09.607Z,24.19
2023-05-04T13:33:40.165Z,24.17
2023-05-04T13:36:07.965Z,24.09
2023-05-04T13:38:35.534Z,22.82
2023-05-04T13:41:03.192Z,23.24
2023-05-04T13:43:31.612Z,23.91
2023-05-04T13:46:03.818Z,24.25
2023-05-04T13:48:33.691Z,24.34
2023-05-04T13:51:03.907Z,23.86
2023-05-04T13:53:31.727Z,23.55
2023-05-04T13:55:59.326Z,24.02
2023-05-04T13:58:26.954Z,23.81
2023-05-04T14:00:56.216Z,22.79
2023-05-04T14:03:24.014Z,22.42
2023-05-04T14:05:52.208Z,21.55
2023-05-04T14:08:19.997Z,22.69
2023-05-04T14:10:47.669Z,23.34
2023-05-04T14:13:15.562Z,24.56
2023-05-04T14:15:43.266Z,24.67
2023-05-04T14:18:11.303Z,24.59
2023-05-04T14:20:39.008Z,24.18
2023-05-04T14:23:06.662Z,24.16
2023-05-04T14:25:34.281Z,24.57
2023-05-04T14:28:02.180Z,24.22
2023-05-04T14:30:29.942Z,24.02
2023-05-04T14:32:58.223Z,24.41
2023-05-04T14:35:26.123Z,25.06
2023-05-04T14:37:53.891Z,24.49
2023-05-04T14:40:21.668Z,22.80
2023-05-04T14:42:49.965Z,21.13
2023-05-04T14:45:17.826Z,22.22
2023-05-04T14:47:45.690Z,23.67
2023-05-04T14:50:13.716Z,24.11
2023-05-04T14:52:41.458Z,24.58
2023-05-04T14:55:09.555Z,24.28
2023-05-04T14:57:37.463Z,24.66
2023-05-04T15:00:08.336Z,25.59
2023-05-04T15:02:38.507Z,25.31
2023-05-04T15:05:07.294Z,26.34
2023-05-04T15:07:34.916Z,26.77
2023-05-04T15:10:03.502Z,27.23
2023-05-04T15:12:31.521Z,27.11
2023-05-04T15:15:00.698Z,26.87
2023-05-04T15:17:30.855Z,25.36
2023-05-04T15:20:02.079Z,25.09
2023-05-04T15:22:31.058Z,22.59
2023-05-04T15:24:58.700Z,23.38
2023-05-04T15:27:26.350Z,23.18
2023-05-04T15:29:54.720Z,24.11
2023-05-04T15:32:22.361Z,25.29
2023-05-04T15:35:01.014Z,25.24
2023-05-04T15:37:32.216Z,25.38
2023-05-04T15:40:02.330Z,25.92
2023-05-04T15:42:30.534Z,26.06
2023-05-04T15:44:58.242Z,26.47
2023-05-04T15:47:26.113Z,27.57
2023-05-04T15:49:53.739Z,28.28
2023-05-04T15:52:21.800Z,26.34
2023-05-04T15:54:49.735Z,26.33
2023-05-04T15:57:17.336Z,26.37
2023-05-04T15:59:47.637Z,26.58
2023-05-04T16:02:16.465Z,25.98
2023-05-04T16:04:44.061Z,25.65
2023-05-04T16:07:11.771Z,25.23
2023-05-04T16:09:39.335Z,24.69
2023-05-04T16:12:07.875Z,24.62
2023-05-04T16:14:36.053Z,24.83
2023-05-04T16:17:04.010Z,24.10
2023-05-04T16:19:31.737Z,23.75
2023-05-04T16:21:59.378Z,23.37
2023-05-04T16:24:27.082Z,23.12
2023-05-04T16:26:54.715Z,22.46
2023-05-04T16:29:23.624Z,21.75
2023-05-04T16:31:52.204Z,21.87
2023-05-04T16:34:19.810Z,22.76
2023-05-04T16:36:47.694Z,22.11
2023-05-04T16:39:16.404Z,22.39
2023-05-04T16:41:46.620Z,22.12
2023-05-04T16:44:15.011Z,21.36
2023-05-04T16:46:42.773Z,22.01
2023-05-04T16:49:12.534Z,21.81
2023-05-04T16:51:42.178Z,21.67
2023-05-04T16:54:09.867Z,22.04
2023-05-04T16:56:37.686Z,21.69
2023-05-04T16:59:05.510Z,21.88
2023-05-04T17:01:33.946Z,21.92
2023-05-04T17:04:02.020Z,22.18
2023-05-04T17:06:29.692Z,21.70
2023-05-04T17:08:57.235Z,21.73
2023-05-04T17:11:25.617Z,22.15
2023-05-04T17:13:53.275Z,21.70
2023-05-04T17:16:20.881Z,21.26
2023-05-04T17:18:48.930Z,21.44
2023-05-04T17:21:17.040Z,20.99
2023-05-04T17:23:44.659Z,21.22
2023-05-04T17:26:12.317Z,21.40
2023-05-04T17:28:39.878Z,21.52
2023-05-04T17:31:11.703Z,21.30
2023-05-04T17:33:39.640Z,20.96
2023-05-04T17:36:07.837Z,21.44
2023-05-04T17:38:35.813Z,21.24
2023-05-04T17:41:05.398Z,21.53
2023-05-04T17:43:34.186Z,21.38
2023-05-04T17:46:02.585Z,21.24
2023-05-04T17:48:33.509Z,20.34
2023-05-04T17:51:01.105Z,19.89
2023-05-04T17:53:29.335Z,20.38
2023-05-04T17:55:57.146Z,20.37
2023-05-04T17:58:24.865Z,19.83
2023-05-04T18:00:53.144Z,20.19
2023-05-04T18:03:21.218Z,20.09
2023-05-04T18:05:48.912Z,20.25
2023-05-04T18:08:16.521Z,19.58
2023-05-04T18:10:44.402Z,19.21
2023-05-04T18:13:12.106Z,19.22
2023-05-04T18:15:39.796Z,19.69
2023-05-04T18:18:07.691Z,19.94
2023-05-04T18:20:36.034Z,19.67
2023-05-04T18:23:03.701Z,19.87
2023-05-04T18:25:31.458Z,19.74
2023-05-04T18:27:59.510Z,19.84
2023-05-04T18:30:27.395Z,19.20
2023-05-04T18:32:55.127Z,19.39
2023-05-04T18:35:22.963Z,19.08
2023-05-04T18:37:50.858Z,19.14
2023-05-04T18:40:18.906Z,19.28
2023-05-04T18:42:46.708Z,19.26
2023-05-04T18:45:14.333Z,18.91
2023-05-04T18:47:42.218Z,18.96
2023-05-04T18:50:10.847Z,18.73
2023-05-04T18:52:38.537Z,18.50
2023-05-04T18:55:07.223Z,18.20
2023-05-04T18:57:34.899Z,18.21
2023-05-04T19:00:02.901Z,18.38
2023-05-04T19:02:31.489Z,18.31
2023-05-04T19:04:59.309Z,18.30
2023-05-04T19:07:26.935Z,18.28
2023-05-04T19:09:55.441Z,18.01
2023-05-04T19:12:23.919Z,17.89
2023-05-04T19:14:51.711Z,17.79
2023-05-04T19:17:19.370Z,17.94
2023-05-04T19:19:47.094Z,17.77
2023-05-04T19:22:15.633Z,17.44
2023-05-04T19:24:43.541Z,17.24
2023-05-04T19:27:11.157Z,17.31
2023-05-04T19:29:38.803Z,17.33
2023-05-04T19:32:19.814Z,17.03
2023-05-04T19:34:47.996Z,16.76
2023-05-04T19:37:15.638Z,16.44
2023-05-04T19:39:43.327Z,16.48
2023-05-04T19:42:11.856Z,16.61
2023-05-04T19:44:39.537Z,16.75
2023-05-04T19:47:07.180Z,16.73
2023-05-04T19:49:35.298Z,16.36
2023-05-04T19:52:02.926Z,16.14
2023-05-04T19:54:30.569Z,16.05
2023-05-04T19:56:58.203Z,16.24
2023-05-04T19:59:25.866Z,16.13
2023-05-04T20:01:53.514Z,16.21
2023-05-04T20:04:21.220Z,15.99
2023-05-04T20:06:48.822Z,15.80
2023-05-04T20:09:16.962Z,15.60
2023-05-04T20:11:44.656Z,15.57
2023-05-04T20:14:12.424Z,14.96
2023-05-04T20:16:39.998Z,15.38
2023-05-04T20:19:07.649Z,15.91
2023-05-04T20:21:35.235Z,15.92
2023-05-04T20:24:03.839Z,16.07
2023-05-04T20:26:31.423Z,15.94
2023-05-04T20:28:59.041Z,15.90
2023-05-04T20:31:26.957Z,15.73
2023-05-04T20:33:54.638Z,15.87
2023-05-04T20:36:22.485Z,16.05
2023-05-04T20:38:50.205Z,16.20
2023-05-04T20:41:18.171Z,16.26
2023-05-04T20:43:45.950Z,16.07
2023-05-04T20:46:13.580Z,15.87
2023-05-04T20:48:41.588Z,15.15
2023-05-04T20:51:14.650Z,14.46
2023-05-04T20:53:43.290Z,14.41
2023-05-04T20:56:11.349Z,14.74
2023-05-04T20:58:39.176Z,14.86
2023-05-04T21:01:07.410Z,14.46
2023-05-04T21:03:35.856Z,14.85
2023-05-04T21:06:04.913Z,15.05
2023-05-04T21:08:32.740Z,15.27
2023-05-04T21:11:00.617Z,15.14
2023-05-04T21:13:28.326Z,15.17
2023-05-04T21:15:56.000Z,15.41
2023-05-04T21:18:23.598Z,15.25
2023-05-04T21:20:51.291Z,14.97
2023-05-04T21:23:18.974Z,14.49
2023-05-04T21:25:46.875Z,14.23
2023-05-04T21:28:14.561Z,14.08
2023-05-04T21:30:42.664Z,14.64
2023-05-04T21:33:10.296Z,14.65
2023-05-04T21:35:37.880Z,14.60
2023-05-04T21:38:05.503Z,14.06
2023-05-04T21:40:33.064Z,13.81
2023-05-04T21:43:01.914Z,13.93
2023-05-04T21:45:33.273Z,13.30
2023-05-04T21:48:02.715Z,13.69
2023-05-04T21:50:30.897Z,14.21
2023-05-04T21:52:58.585Z,14.05
2023-05-04T21:55:26.203Z,14.00
2023-05-04T21:57:53.820Z,13.74
2023-05-04T22:00:22.204Z,13.45
2023-05-04T22:02:49.929Z,13.02
2023-05-04T22:05:21.965Z,12.70
2023-05-04T22:07:50.385Z,12.43
2023-05-04T22:10:18.168Z,11.70
2023-05-04T22:12:45.884Z,11.82
2023-05-04T22:15:14.081Z,12.11
2023-05-04T22:17:41.915Z,12.72
2023-05-04T22:20:10.770Z,12.21
2023-05-04T22:22:38.361Z,12.32
2023-05-04T22:25:07.101Z,12.20
2023-05-04T22:27:34.747Z,11.99
2023-05-04T22:30:02.341Z,12.25
2023-05-04T22:32:30.297Z,11.80
2023-05-04T22:34:57.939Z,11.67
2023-05-04T22:37:25.535Z,11.83
2023-05-04T22:39:53.204Z,11.40
2023-05-04T22:42:20.889Z,11.49
2023-05-04T22:44:48.429Z,11.38
2023-05-04T22:47:16.534Z,11.11
2023-05-04T22:49:44.187Z,10.74
2023-05-04T22:52:12.503Z,10.55
2023-05-04T22:54:40.124Z,10.29
2023-05-04T22:57:07.833Z,10.33
2023-05-04T22:59:35.691Z,9.54
2023-05-04T23:02:03.447Z,10.60
2023-05-04T23:04:31.462Z,10.76
2023-05-04T23:06:59.245Z,10.12
2023-05-04T23:09:27.039Z,9.50
2023-05-04T23:11:54.944Z,9.85
2023-05-04T23:14:22.848Z,10.26
2023-05-04T23:16:50.562Z,9.83
2023-05-04T23:19:18.175Z,9.67
2023-05-04T23:21:45.978Z,9.95
2023-05-04T23:24:13.670Z,10.07
2023-05-04T23:26:42.147Z,10.01
2023-05-04T23:29:09.698Z,9.68
2023-05-04T23:31:37.333Z,9.71
2023-05-04T23:34:05.089Z,9.55
2023-05-04T23:36:32.995Z,9.71
2023-05-04T23:39:00.571Z,10.01
2023-05-04T23:41:28.647Z,9.95
2023-05-04T23:43:59.419Z,10.00
2023-05-04T23:46:27.056Z,10.18
2023-05-04T23:48:54.859Z,10.57
2023-05-04T23:51:22.427Z,10.62
2023-05-04T23:53:49.953Z,10.36
2023-05-04T23:56:17.589Z,9.90
2023-05-04T23:58:45.915Z,9.29
